createdAt,value
2023-01-25T00:03:11.507Z,82.83
2023-01-25T00:08:07.071Z,82.94
2023-01-25T00:13:00.500Z,82.83
2023-01-25T00:17:53.758Z,83.20
2023-01-25T00:22:46.980Z,84.13
2023-01-25T00:27:41.625Z,84.10
2023-01-25T00:32:48.164Z,84.15
2023-01-25T00:37:44.935Z,84.64
2023-01-25T00:42:38.227Z,84.62
2023-01-25T00:47:33.014Z,84.45
2023-01-25T00:52:30.584Z,84.35
2023-01-25T00:57:24.000Z,84.89
2023-01-25T01:02:17.499Z,85.09
2023-01-25T01:07:14.939Z,85.63
2023-01-25T01:12:08.357Z,85.76
2023-01-25T01:17:04.202Z,85.77
2023-01-25T01:21:57.575Z,86.29
2023-01-25T01:26:52.477Z,86.64
2023-01-25T01:31:45.842Z,87.03
2023-01-25T01:36:45.475Z,87.34
2023-01-25T01:41:39.771Z,88.14
2023-01-25T01:46:56.216Z,88.39
2023-01-25T01:51:56.566Z,88.37
2023-01-25T01:56:58.439Z,88.72
2023-01-25T02:01:53.859Z,89.41
2023-01-25T02:06:51.983Z,90.12
2023-01-25T02:11:48.083Z,90.03
2023-01-25T02:16:43.249Z,90.70
2023-01-25T02:21:44.261Z,90.98
2023-01-25T02:26:41.783Z,91.20
2023-01-25T02:31:35.875Z,90.97
2023-01-25T02:36:30.898Z,89.76
2023-01-25T02:41:28.726Z,89.75
2023-01-25T02:46:27.711Z,89.38
2023-01-25T02:51:21.626Z,88.85
2023-01-25T02:56:14.941Z,88.30
2023-01-25T03:01:10.817Z,88.17
2023-01-25T03:06:09.633Z,87.42
2023-01-25T03:11:05.428Z,85.95
2023-01-25T03:16:01.674Z,85.11
2023-01-25T03:20:55.005Z,83.60
2023-01-25T03:25:52.171Z,83.19
2023-01-25T03:30:50.103Z,83.06
2023-01-25T03:35:43.843Z,82.26
2023-01-25T03:40:38.040Z,82.04
2023-01-25T03:45:32.911Z,81.55
2023-01-25T03:50:27.938Z,81.23
2023-01-25T03:55:21.280Z,81.03
2023-01-25T04:00:16.116Z,81.09
2023-01-25T04:05:14.665Z,81.11
2023-01-25T04:10:10.297Z,80.15
2023-01-25T04:15:09.250Z,80.56
2023-01-25T04:20:04.826Z,80.50
2023-01-25T04:25:04.558Z,80.58
2023-01-25T04:29:58.867Z,81.17
2023-01-25T04:34:53.753Z,81.22
2023-01-25T04:39:52.319Z,81.10
2023-01-25T04:44:47.830Z,80.23
2023-01-25T04:49:41.232Z,79.87
2023-01-25T04:54:39.118Z,78.98
2023-01-25T04:59:33.031Z,79.64
2023-01-25T05:04:27.946Z,79.57
2023-01-25T05:09:21.682Z,78.92
2023-01-25T05:14:15.279Z,79.24
2023-01-25T05:19:12.331Z,79.07
2023-01-25T05:24:27.698Z,79.09
2023-01-25T05:29:21.079Z,79.36
2023-01-25T05:34:26.239Z,79.12
2023-01-25T05:39:22.364Z,79.04
2023-01-25T05:44:17.836Z,78.03
2023-01-25T05:49:17.267Z,77.47
2023-01-25T05:54:20.378Z,77.29
2023-01-25T05:59:28.904Z,77.52
2023-01-25T06:04:28.149Z,77.34
2023-01-25T06:09:22.510Z,78.00
2023-01-25T06:14:19.423Z,77.60
2023-01-25T06:19:17.864Z,76.85
2023-01-25T06:24:37.248Z,77.01
2023-01-25T06:29:30.528Z,77.49
2023-01-25T06:34:25.484Z,77.49
2023-01-25T06:39:19.839Z,77.22
2023-01-25T06:44:12.990Z,75.85
2023-01-25T06:49:06.216Z,76.21
2023-01-25T06:54:04.009Z,75.90
2023-01-25T06:58:57.256Z,76.22
2023-01-25T07:03:53.730Z,76.61
2023-01-25T07:08:48.312Z,76.45
2023-01-25T07:13:43.758Z,76.19
2023-01-25T07:18:38.202Z,75.29
2023-01-25T07:23:34.093Z,75.41
2023-01-25T07:28:27.705Z,75.75
2023-01-25T07:33:22.203Z,76.08
2023-01-25T07:38:15.403Z,75.75
2023-01-25T07:43:09.658Z,75.21
2023-01-25T07:48:10.998Z,75.01
2023-01-25T07:53:05.591Z,74.41
2023-01-25T07:57:58.854Z,74.81
2023-01-25T08:02:52.242Z,75.28
2023-01-25T08:07:45.447Z,75.54
2023-01-25T08:12:40.001Z,75.25
2023-01-25T08:17:36.025Z,74.83
2023-01-25T08:22:29.527Z,75.15
2023-01-25T08:27:22.674Z,75.14
2023-01-25T08:32:17.361Z,75.21
2023-01-25T08:37:10.628Z,75.07
2023-01-25T08:42:04.302Z,74.84
2023-01-25T08:46:57.452Z,74.51
2023-01-25T08:51:53.021Z,73.54
2023-01-25T08:56:46.211Z,73.51
2023-01-25T09:01:40.081Z,72.78
2023-01-25T09:06:34.486Z,72.71
2023-01-25T09:11:29.146Z,72.59
2023-01-25T09:16:28.847Z,72.66
2023-01-25T09:21:22.549Z,72.18
2023-01-25T09:26:16.654Z,72.13
2023-01-25T09:31:21.530Z,72.27
2023-01-25T09:36:33.170Z,72.39
2023-01-25T09:41:51.833Z,71.04
2023-01-25T09:46:52.621Z,72.23
2023-01-25T09:52:03.345Z,71.19
2023-01-25T09:56:57.976Z,70.74
2023-01-25T10:01:57.550Z,70.28
2023-01-25T10:07:00.917Z,70.82
2023-01-25T10:11:54.912Z,70.20
2023-01-25T10:17:02.304Z,70.30
2023-01-25T10:21:58.955Z,70.62
2023-01-25T10:26:57.873Z,70.72
2023-01-25T10:31:53.922Z,70.50
2023-01-25T10:36:49.015Z,70.38
2023-01-25T10:41:47.291Z,70.11
2023-01-25T10:46:42.757Z,70.15
2023-01-25T10:51:37.386Z,70.66
2023-01-25T10:56:31.949Z,70.09
2023-01-25T11:01:32.886Z,70.48
2023-01-25T11:06:34.825Z,71.21
2023-01-25T11:11:35.071Z,70.52
2023-01-25T11:16:33.322Z,70.07
2023-01-25T11:21:28.125Z,69.46
2023-01-25T11:26:21.672Z,68.91
2023-01-25T11:31:18.785Z,69.35
2023-01-25T11:36:26.299Z,69.40
2023-01-25T11:41:28.205Z,69.25
2023-01-25T11:46:45.670Z,70.14
2023-01-25T11:51:46.674Z,69.66
2023-01-25T11:56:52.057Z,69.74
2023-01-25T12:02:04.863Z,69.72
2023-01-25T12:07:04.430Z,69.37
2023-01-25T12:12:10.907Z,69.37
2023-01-25T12:17:24.116Z,69.45
2023-01-25T12:22:47.032Z,69.62
2023-01-25T12:27:54.521Z,68.83
2023-01-25T12:32:57.302Z,68.46
2023-01-25T12:37:57.384Z,68.75
2023-01-25T12:42:56.862Z,68.78
2023-01-25T12:47:58.219Z,68.50
2023-01-25T12:52:58.669Z,68.61
2023-01-25T12:58:01.235Z,68.69
2023-01-25T13:03:08.395Z,68.67
2023-01-25T13:08:17.822Z,68.37
2023-01-25T13:13:23.973Z,68.45
2023-01-25T13:18:41.679Z,68.57
2023-01-25T13:23:36.586Z,69.10
2023-01-25T13:28:45.900Z,68.84
2023-01-25T13:33:43.088Z,68.86
2023-01-25T13:38:36.899Z,69.00
2023-01-25T13:43:30.317Z,69.01
2023-01-25T13:48:28.860Z,69.69
2023-01-25T13:53:25.157Z,69.54
2023-01-25T13:58:21.580Z,70.06
2023-01-25T14:03:14.995Z,70.29
2023-01-25T14:08:11.373Z,70.02
2023-01-25T14:13:05.903Z,70.21
2023-01-25T14:18:16.484Z,70.47
2023-01-25T14:23:22.718Z,69.98
2023-01-25T14:28:17.685Z,70.54
2023-01-25T14:33:20.313Z,71.24
2023-01-25T14:38:26.782Z,71.01
2023-01-25T14:43:21.930Z,71.46
2023-01-25T14:48:53.049Z,71.50
2023-01-25T14:53:52.074Z,72.05
2023-01-25T14:58:50.857Z,71.86
2023-01-25T15:03:54.987Z,72.42
2023-01-25T15:08:50.387Z,72.25
2023-01-25T15:13:44.094Z,72.52
2023-01-25T15:18:50.823Z,72.16
2023-01-25T15:23:49.748Z,72.11
2023-01-25T15:28:50.444Z,72.50
2023-01-25T15:34:00.652Z,72.42
2023-01-25T15:39:24.438Z,73.27
2023-01-25T15:44:22.397Z,73.43
2023-01-25T15:49:28.600Z,73.38
2023-01-25T16:00:54.897Z,73.76
2023-01-25T16:06:11.872Z,73.77
2023-01-25T16:11:34.581Z,73.77
2023-01-25T16:16:33.391Z,73.92
2023-01-25T16:21:26.829Z,74.14
2023-01-25T16:26:29.327Z,73.58
2023-01-25T16:31:32.959Z,73.49
2023-01-25T16:36:27.132Z,73.38
2023-01-25T16:41:22.739Z,73.32
2023-01-25T16:46:20.471Z,73.76
2023-01-25T16:51:23.830Z,74.00
2023-01-25T16:56:21.251Z,74.09
2023-01-25T17:01:16.577Z,74.10
2023-01-25T17:06:17.448Z,74.05
2023-01-25T17:11:14.373Z,74.48
2023-01-25T17:16:08.581Z,74.55
2023-01-25T17:21:17.920Z,74.23
2023-01-25T17:26:13.783Z,74.34
2023-01-25T17:31:15.775Z,74.13
2023-01-25T17:36:15.178Z,74.35
2023-01-25T17:41:13.422Z,74.81
2023-01-25T17:46:14.437Z,74.80
2023-01-25T17:51:15.901Z,74.45
2023-01-25T17:56:12.730Z,74.74
2023-01-25T18:01:14.090Z,74.38
2023-01-25T18:06:09.680Z,74.82
2023-01-25T18:11:06.351Z,74.71
2023-01-25T18:16:01.370Z,74.34
2023-01-25T18:21:07.172Z,74.84
2023-01-25T18:26:03.044Z,75.18
2023-01-25T18:31:02.551Z,75.63
2023-01-25T18:35:57.567Z,75.33
2023-01-25T18:40:51.002Z,75.17
2023-01-25T18:45:44.703Z,75.25
2023-01-25T18:50:41.413Z,75.35
2023-01-25T18:55:34.878Z,75.25
2023-01-25T19:00:28.194Z,75.59
2023-01-25T19:05:22.050Z,75.67
2023-01-25T19:10:21.061Z,76.22
2023-01-25T19:15:14.385Z,76.44
2023-01-25T19:20:08.440Z,77.00
2023-01-25T19:25:02.811Z,76.99
2023-01-25T19:29:58.703Z,77.01
2023-01-25T19:34:52.696Z,77.17
2023-01-25T19:39:46.138Z,77.89
2023-01-25T19:44:40.328Z,77.55
2023-01-25T19:49:35.319Z,77.25
2023-01-25T19:54:28.992Z,77.10
2023-01-25T19:59:25.373Z,77.38
2023-01-25T20:04:21.427Z,77.41
2023-01-25T20:09:17.465Z,77.32
2023-01-25T20:14:14.321Z,77.72
2023-01-25T20:19:07.778Z,78.02
2023-01-25T20:24:05.674Z,78.37
2023-01-25T20:29:01.969Z,78.30
2023-01-25T20:33:58.565Z,78.71
2023-01-25T20:38:52.217Z,78.21
2023-01-25T20:43:49.303Z,78.71
2023-01-25T20:48:44.808Z,78.48
2023-01-25T20:53:38.871Z,78.97
2023-01-25T20:58:32.621Z,78.98
2023-01-25T21:03:27.237Z,79.36
2023-01-25T21:08:24.701Z,79.63
2023-01-25T21:13:18.172Z,79.44
2023-01-25T21:18:11.449Z,79.35
2023-01-25T21:23:04.595Z,79.89
2023-01-25T21:27:59.190Z,80.00
2023-01-25T21:32:52.507Z,80.08
2023-01-25T21:37:46.330Z,80.46
2023-01-25T21:42:39.689Z,80.35
2023-01-25T21:47:34.354Z,80.84
2023-01-25T21:52:27.674Z,80.94
2023-01-25T21:57:22.394Z,80.86
2023-01-25T22:02:16.430Z,81.20
2023-01-25T22:07:11.992Z,81.13
2023-01-25T22:12:05.739Z,81.47
2023-01-25T22:17:00.515Z,81.84
2023-01-25T22:21:53.758Z,82.25
2023-01-25T22:26:59.004Z,82.54
2023-01-25T22:31:52.443Z,82.89
2023-01-25T22:36:45.718Z,82.92
2023-01-25T22:41:39.048Z,82.90
2023-01-25T22:46:36.062Z,83.44
2023-01-25T22:51:30.991Z,83.86
2023-01-25T22:56:25.971Z,84.62
2023-01-25T23:01:22.416Z,84.64
2023-01-25T23:06:18.444Z,85.29
2023-01-25T23:11:16.418Z,86.01
2023-01-25T23:16:11.160Z,86.46
2023-01-25T23:21:04.740Z,87.09
2023-01-25T23:26:01.499Z,87.34
2023-01-25T23:31:11.472Z,87.81
2023-01-25T23:36:12.459Z,87.77
2023-01-25T23:41:07.694Z,88.02
2023-01-25T23:46:01.017Z,88.51
2023-01-25T23:50:54.942Z,88.66
2023-01-25T23:55:53.369Z,89.07
